createdAt,value
2017-10-09T00:01:03.421Z,96.10
2017-10-09T00:03:31.745Z,96.30
2017-10-09T00:05:59.957Z,96.10
2017-10-09T00:08:28.234Z,95.90
2017-10-09T00:10:56.497Z,95.90
2017-10-09T00:13:24.711Z,95.90
2017-10-09T00:15:52.985Z,96.00
2017-10-09T00:18:21.617Z,95.90
2017-10-09T00:20:49.845Z,96.00
2017-10-09T00:23:18.102Z,95.80
2017-10-09T00:25:46.374Z,95.90
2017-10-09T00:28:15.399Z,96.10
2017-10-09T00:30:43.652Z,96.10
2017-10-09T00:33:11.937Z,96.30
2017-10-09T00:35:40.213Z,96.20
2017-10-09T00:38:08.454Z,96.10
2017-10-09T00:40:36.832Z,96.10
2017-10-09T00:43:05.042Z,96.00
2017-10-09T00:45:33.302Z,96.00
2017-10-09T00:48:02.326Z,96.00
2017-10-09T00:50:30.570Z,96.30
2017-10-09T00:52:59.634Z,96.10
2017-10-09T00:55:27.854Z,96.10
2017-10-09T00:57:56.139Z,96.20
2017-10-09T01:00:25.158Z,95.90
2017-10-09T01:02:53.403Z,95.90
2017-10-09T01:05:21.657Z,95.70
2017-10-09T01:07:50.705Z,95.50
2017-10-09T01:10:18.995Z,95.50
2017-10-09T01:12:47.386Z,95.50
2017-10-09T01:15:15.717Z,95.80
2017-10-09T01:17:43.970Z,95.80
2017-10-09T01:20:12.972Z,95.70
2017-10-09T01:22:41.285Z,95.70
2017-10-09T01:25:09.570Z,95.70
2017-10-09T01:27:37.846Z,95.50
2017-10-09T01:30:06.107Z,95.60
2017-10-09T01:32:34.348Z,95.60
2017-10-09T01:35:03.368Z,95.80
2017-10-09T01:37:31.634Z,95.80
2017-10-09T01:39:59.866Z,96.00
2017-10-09T01:42:28.118Z,95.90
2017-10-09T01:44:56.394Z,95.70
2017-10-09T01:47:24.630Z,95.80
2017-10-09T01:49:53.663Z,95.80
2017-10-09T01:52:22.775Z,95.50
2017-10-09T01:54:51.011Z,95.50
2017-10-09T01:57:20.054Z,95.60
2017-10-09T01:59:48.268Z,95.60
2017-10-09T02:02:16.500Z,95.90
2017-10-09T02:04:44.759Z,96.00
2017-10-09T02:07:13.018Z,96.10
2017-10-09T02:09:42.015Z,95.90
2017-10-09T02:12:10.291Z,95.90
2017-10-09T02:14:38.576Z,95.90
2017-10-09T02:17:07.578Z,95.70
2017-10-09T02:19:35.830Z,95.70
2017-10-09T02:22:05.574Z,96.10
2017-10-09T02:24:33.824Z,96.10
2017-10-09T02:27:02.862Z,96.40
2017-10-09T02:29:31.121Z,96.40
2017-10-09T02:31:59.334Z,96.50
2017-10-09T02:34:27.606Z,96.50
2017-10-09T02:36:55.854Z,96.20
2017-10-09T02:39:24.095Z,96.00
2017-10-09T02:41:52.344Z,96.00
2017-10-09T02:44:20.602Z,96.20
2017-10-09T02:46:48.851Z,96.20
2017-10-09T02:49:17.097Z,96.10
2017-10-09T02:51:46.132Z,95.60
2017-10-09T02:54:14.350Z,95.60
2017-10-09T02:56:43.397Z,95.70
2017-10-09T02:59:11.613Z,95.70
2017-10-09T03:01:39.894Z,96.00
2017-10-09T03:04:08.130Z,95.80
2017-10-09T03:06:36.369Z,95.80
2017-10-09T03:09:05.403Z,96.10
2017-10-09T03:11:33.685Z,96.10
2017-10-09T03:14:01.962Z,96.00
2017-10-09T03:16:30.182Z,96.00
2017-10-09T03:18:58.453Z,95.90
2017-10-09T03:21:26.678Z,96.10
2017-10-09T03:24:01.287Z,95.80
2017-10-09T03:26:42.151Z,95.80
2017-10-09T03:29:30.164Z,95.80
2017-10-09T03:31:58.406Z,95.60
2017-10-09T03:34:27.518Z,95.50
2017-10-09T03:36:55.775Z,95.60
2017-10-09T03:39:24.258Z,95.90
2017-10-09T03:41:52.509Z,95.30
2017-10-09T03:44:21.535Z,95.10
2017-10-09T03:46:49.773Z,95.10
2017-10-09T03:49:18.030Z,95.50
2017-10-09T03:51:46.277Z,95.20
2017-10-09T03:54:14.479Z,95.30
2017-10-09T03:56:43.534Z,95.50
2017-10-09T03:59:11.780Z,95.50
2017-10-09T04:01:40.811Z,95.80
2017-10-09T04:04:09.071Z,95.70
2017-10-09T04:06:38.094Z,95.80
2017-10-09T04:09:06.314Z,95.80
2017-10-09T04:11:35.317Z,96.10
2017-10-09T04:14:04.352Z,95.50
2017-10-09T04:16:32.594Z,95.50
2017-10-09T04:19:01.587Z,95.60
2017-10-09T04:21:30.618Z,95.60
2017-10-09T04:23:58.894Z,95.50
2017-10-09T04:26:27.137Z,95.50
2017-10-09T04:28:55.386Z,95.60
2017-10-09T04:31:23.651Z,95.60
2017-10-09T04:33:52.371Z,95.60
2017-10-09T04:36:20.653Z,95.80
2017-10-09T04:38:49.655Z,95.90
2017-10-09T04:41:19.448Z,95.90
2017-10-09T04:43:47.764Z,95.90
2017-10-09T04:46:16.774Z,96.10
2017-10-09T04:48:45.045Z,96.10
2017-10-09T04:51:13.286Z,96.10
2017-10-09T04:53:41.558Z,96.10
2017-10-09T04:56:10.803Z,96.00
2017-10-09T04:58:39.043Z,96.00
2017-10-09T05:01:08.094Z,96.30
2017-10-09T05:03:36.380Z,96.20
2017-10-09T05:06:04.608Z,96.10
2017-10-09T05:08:32.915Z,96.10
2017-10-09T05:11:01.166Z,96.00
2017-10-09T05:13:29.434Z,95.90
2017-10-09T05:15:58.463Z,95.90
2017-10-09T05:18:26.687Z,95.80
2017-10-09T05:20:55.763Z,95.90
2017-10-09T05:23:23.990Z,95.90
2017-10-09T05:25:52.302Z,95.90
2017-10-09T05:28:20.573Z,95.90
2017-10-09T05:30:48.846Z,95.80
2017-10-09T05:33:17.078Z,95.70
2017-10-09T05:35:46.138Z,95.70
2017-10-09T05:38:14.379Z,95.70
2017-10-09T05:40:43.013Z,95.60
2017-10-09T05:43:11.263Z,95.30
2017-10-09T05:45:39.478Z,95.50
2017-10-09T05:48:07.775Z,95.30
2017-10-09T05:50:36.804Z,95.20
2017-10-09T05:53:05.608Z,95.20
2017-10-09T05:55:33.849Z,95.20
2017-10-09T05:58:02.139Z,95.30
2017-10-09T06:00:30.404Z,95.40
2017-10-09T06:02:58.634Z,95.50
2017-10-09T06:05:26.875Z,95.30
2017-10-09T06:07:55.132Z,95.20
2017-10-09T06:10:23.365Z,95.00
2017-10-09T06:12:51.608Z,95.00
2017-10-09T06:15:19.882Z,95.10
2017-10-09T06:17:48.427Z,95.00
2017-10-09T06:20:16.992Z,94.90
2017-10-09T06:22:45.231Z,94.90
2017-10-09T06:25:13.487Z,95.00
2017-10-09T06:27:41.745Z,94.70
2017-10-09T06:30:10.054Z,95.00
2017-10-09T06:32:38.323Z,94.90
2017-10-09T06:35:06.991Z,94.70
2017-10-09T06:37:36.034Z,94.50
2017-10-09T06:40:04.284Z,94.50
2017-10-09T06:42:32.523Z,94.50
2017-10-09T06:45:01.559Z,94.20
2017-10-09T06:47:29.806Z,94.10
2017-10-09T06:49:58.818Z,94.20
2017-10-09T06:52:27.070Z,94.20
2017-10-09T06:54:56.104Z,94.00
2017-10-09T06:57:24.335Z,94.00
2017-10-09T06:59:52.564Z,94.10
2017-10-09T07:02:21.513Z,94.20
2017-10-09T07:04:50.543Z,93.50
2017-10-09T07:07:18.806Z,93.50
2017-10-09T07:09:47.071Z,93.20
2017-10-09T07:12:16.950Z,93.30
2017-10-09T07:14:45.213Z,93.30
2017-10-09T07:17:13.460Z,93.40
2017-10-09T07:19:41.707Z,93.40
2017-10-09T07:22:10.185Z,93.40
2017-10-09T07:24:39.226Z,93.50
2017-10-09T07:27:07.462Z,93.50
2017-10-09T07:29:35.722Z,93.20
2017-10-09T07:32:04.002Z,92.90
2017-10-09T07:34:32.247Z,93.10
2017-10-09T07:37:00.522Z,93.10
2017-10-09T07:39:28.782Z,92.90
2017-10-09T07:41:57.011Z,92.70
2017-10-09T07:44:25.314Z,92.90
2017-10-09T07:46:54.335Z,92.80
2017-10-09T07:49:22.574Z,92.80
2017-10-09T07:51:50.790Z,92.80
2017-10-09T07:54:19.089Z,92.60
2017-10-09T07:56:47.351Z,92.50
2017-10-09T07:59:15.989Z,92.30
2017-10-09T08:01:45.002Z,92.40
2017-10-09T08:04:13.314Z,92.40
2017-10-09T08:06:41.599Z,92.80
2017-10-09T08:09:09.851Z,92.70
2017-10-09T08:11:38.496Z,92.50
2017-10-09T08:14:06.725Z,92.30
2017-10-09T08:16:34.968Z,92.00
2017-10-09T08:19:03.220Z,91.60
2017-10-09T08:21:32.231Z,91.50
2017-10-09T08:24:01.271Z,91.30
2017-10-09T08:26:29.539Z,91.30
2017-10-09T08:28:57.781Z,91.40
2017-10-09T08:31:26.788Z,91.20
2017-10-09T08:33:55.045Z,91.20
2017-10-09T08:36:24.073Z,91.20
2017-10-09T08:38:52.312Z,91.10
2017-10-09T08:41:21.375Z,91.30
2017-10-09T08:43:50.474Z,91.10
2017-10-09T08:46:18.751Z,90.70
2017-10-09T08:48:47.153Z,90.80
2017-10-09T08:51:15.454Z,90.90
2017-10-09T08:53:43.688Z,91.00
2017-10-09T08:56:11.916Z,91.30
2017-10-09T08:58:40.191Z,90.40
2017-10-09T09:01:09.053Z,90.20
2017-10-09T09:03:37.317Z,89.40
2017-10-09T09:06:05.586Z,89.10
2017-10-09T09:08:33.947Z,89.20
2017-10-09T09:11:03.114Z,89.10
2017-10-09T09:13:31.347Z,89.00
2017-10-09T09:15:59.632Z,88.30
2017-10-09T09:18:27.880Z,87.70
2017-10-09T09:20:56.143Z,87.60
2017-10-09T09:23:24.414Z,88.80
2017-10-09T09:25:52.663Z,88.60
2017-10-09T09:28:20.941Z,88.40
2017-10-09T09:30:50.176Z,87.20
2017-10-09T09:33:18.437Z,87.20
2017-10-09T09:35:46.686Z,87.10
2017-10-09T09:38:14.931Z,85.90
2017-10-09T09:40:43.236Z,85.00
2017-10-09T09:43:11.498Z,84.70
2017-10-09T09:45:39.740Z,84.30
2017-10-09T09:48:07.985Z,83.90
2017-10-09T09:50:37.047Z,82.20
2017-10-09T09:53:05.437Z,82.30
2017-10-09T09:55:33.642Z,83.40
2017-10-09T09:58:01.919Z,84.40
2017-10-09T10:00:30.939Z,84.50
2017-10-09T10:02:59.276Z,84.50
2017-10-09T10:05:27.495Z,84.50
2017-10-09T10:07:55.786Z,84.60
2017-10-09T10:10:24.014Z,85.40
2017-10-09T10:12:53.092Z,85.20
2017-10-09T10:15:21.347Z,85.80
2017-10-09T10:17:49.573Z,85.00
2017-10-09T10:20:17.918Z,86.00
2017-10-09T10:22:46.139Z,85.60
2017-10-09T10:25:15.289Z,85.50
2017-10-09T10:27:43.589Z,86.20
2017-10-09T10:30:12.774Z,86.00
2017-10-09T10:32:40.996Z,86.00
2017-10-09T10:35:09.859Z,86.40
2017-10-09T10:37:38.873Z,86.50
2017-10-09T10:40:08.615Z,86.50
2017-10-09T10:42:36.975Z,86.20
2017-10-09T10:45:05.287Z,86.30
2017-10-09T10:47:34.337Z,86.70
2017-10-09T10:50:02.573Z,86.10
2017-10-09T10:52:30.843Z,85.70
2017-10-09T10:54:59.138Z,87.00
2017-10-09T10:57:27.409Z,87.00
2017-10-09T10:59:55.658Z,88.40
2017-10-09T11:02:23.928Z,90.20
2017-10-09T11:04:52.475Z,91.00
2017-10-09T11:07:21.504Z,92.20
2017-10-09T11:09:49.744Z,92.20
2017-10-09T11:12:18.025Z,92.70
2017-10-09T11:14:46.304Z,92.40
2017-10-09T11:17:14.978Z,92.40
2017-10-09T11:19:43.273Z,92.40
2017-10-09T11:22:11.599Z,92.20
2017-10-09T11:24:39.871Z,92.60
2017-10-09T11:27:08.146Z,92.60
2017-10-09T11:29:36.394Z,92.50
2017-10-09T11:32:04.680Z,92.10
2017-10-09T11:34:32.924Z,92.20
2017-10-09T11:37:02.017Z,91.80
2017-10-09T11:39:30.242Z,91.80
2017-10-09T11:41:58.491Z,91.90
2017-10-09T11:44:26.743Z,92.40
2017-10-09T11:46:55.759Z,92.30
2017-10-09T11:49:24.039Z,92.30
2017-10-09T11:51:53.153Z,92.80
2017-10-09T11:54:21.420Z,93.30
2017-10-09T11:56:49.702Z,93.00
2017-10-09T11:59:17.957Z,93.30
2017-10-09T12:01:47.435Z,93.20
2017-10-09T12:04:16.454Z,93.00
2017-10-09T12:06:45.527Z,92.90
2017-10-09T12:09:13.804Z,92.90
2017-10-09T12:11:42.004Z,91.80
2017-10-09T12:14:11.023Z,92.70
2017-10-09T12:16:39.317Z,92.80
2017-10-09T12:19:07.565Z,92.50
2017-10-09T12:21:35.827Z,92.70
2017-10-09T12:24:04.827Z,92.10
2017-10-09T12:26:33.847Z,92.30
2017-10-09T12:29:02.156Z,92.30
2017-10-09T12:31:31.279Z,92.40
2017-10-09T12:33:59.549Z,92.00
2017-10-09T12:36:27.832Z,91.40
2017-10-09T12:38:56.110Z,91.50
2017-10-09T12:41:24.393Z,91.80
2017-10-09T12:43:52.652Z,91.80
2017-10-09T12:46:20.909Z,91.90
2017-10-09T12:48:49.196Z,91.90
2017-10-09T12:51:18.054Z,91.60
2017-10-09T12:53:46.297Z,91.50
2017-10-09T12:56:15.315Z,91.70
2017-10-09T12:58:43.576Z,91.30
2017-10-09T13:01:11.850Z,91.90
2017-10-09T13:03:40.883Z,91.40
2017-10-09T13:06:09.126Z,91.40
2017-10-09T13:08:38.179Z,91.40
2017-10-09T13:11:06.465Z,91.60
2017-10-09T13:13:35.070Z,91.20
2017-10-09T13:16:03.530Z,91.00
2017-10-09T13:18:31.792Z,91.00
2017-10-09T13:21:00.323Z,90.70
2017-10-09T13:23:29.346Z,91.10
2017-10-09T13:25:58.366Z,91.10
2017-10-09T13:28:26.628Z,91.10
2017-10-09T13:30:55.973Z,91.00
2017-10-09T13:33:24.250Z,90.30
2017-10-09T13:35:52.514Z,91.10
2017-10-09T13:38:20.764Z,90.80
2017-10-09T13:40:49.035Z,90.60
2017-10-09T13:43:18.207Z,90.90
2017-10-09T13:45:46.511Z,90.90
2017-10-09T13:48:14.763Z,90.90
2017-10-09T13:50:43.069Z,90.00
2017-10-09T13:53:11.361Z,90.40
2017-10-09T13:55:42.647Z,90.60
2017-10-09T13:58:11.809Z,90.30
2017-10-09T14:00:40.067Z,90.30
2017-10-09T14:03:08.439Z,90.50
2017-10-09T14:05:38.105Z,90.50
2017-10-09T14:08:06.652Z,90.60
2017-10-09T14:10:35.015Z,90.40
2017-10-09T14:13:03.306Z,90.50
2017-10-09T14:15:31.569Z,90.40
2017-10-09T14:17:59.859Z,90.50
2017-10-09T14:20:28.132Z,90.30
2017-10-09T14:22:56.386Z,91.10
2017-10-09T14:25:25.429Z,91.00
2017-10-09T14:27:54.260Z,91.00
2017-10-09T14:30:22.586Z,90.90
2017-10-09T14:40:18.230Z,91.10
2017-10-09T14:42:46.473Z,91.00
2017-10-09T14:45:15.543Z,91.00
2017-10-09T14:47:43.842Z,91.00
2017-10-09T14:50:12.223Z,90.70
2017-10-09T14:52:40.600Z,91.00
2017-10-09T14:55:08.867Z,90.90
2017-10-09T14:57:37.272Z,90.70
2017-10-09T15:00:05.539Z,90.50
2017-10-09T15:02:34.128Z,90.50
2017-10-09T15:05:03.187Z,90.70
2017-10-09T15:07:31.460Z,90.70
2017-10-09T15:09:59.714Z,91.10
2017-10-09T15:12:27.990Z,91.00
2017-10-09T15:14:56.956Z,91.20
2017-10-09T15:17:25.996Z,91.10
2017-10-09T15:19:55.056Z,91.20
2017-10-09T15:22:24.152Z,91.30
2017-10-09T15:24:53.156Z,91.60
2017-10-09T15:27:21.460Z,91.50
2017-10-09T15:29:49.704Z,91.60
2017-10-09T15:32:18.125Z,91.50
2017-10-09T15:34:46.593Z,91.40
2017-10-09T15:37:14.844Z,91.80
2017-10-09T15:39:43.955Z,92.10
2017-10-09T15:42:12.244Z,92.10
2017-10-09T15:44:40.517Z,92.10
2017-10-09T15:47:08.803Z,92.20
2017-10-09T15:49:37.073Z,92.00
2017-10-09T15:52:05.929Z,91.80
2017-10-09T15:54:35.055Z,92.00
2017-10-09T15:57:03.287Z,92.00
2017-10-09T15:59:31.542Z,92.40
2017-10-09T16:01:59.834Z,92.30
2017-10-09T16:04:28.107Z,92.30
2017-10-09T16:06:56.366Z,92.50
2017-10-09T16:09:24.650Z,92.40
2017-10-09T16:11:52.962Z,92.60
2017-10-09T16:14:21.208Z,92.50
2017-10-09T16:16:49.465Z,92.70
2017-10-09T16:19:17.734Z,93.00
2017-10-09T16:21:46.048Z,93.00
2017-10-09T16:24:14.290Z,93.20
2017-10-09T16:26:42.687Z,93.30
2017-10-09T16:29:11.204Z,93.50
2017-10-09T16:31:39.572Z,93.40
2017-10-09T16:34:07.823Z,93.30
2017-10-09T16:36:37.500Z,93.40
2017-10-09T16:39:05.916Z,93.30
2017-10-09T16:41:34.225Z,93.20
2017-10-09T16:44:02.491Z,93.10
2017-10-09T16:46:30.800Z,93.10
2017-10-09T16:48:59.936Z,93.20
2017-10-09T16:51:28.225Z,93.20
2017-10-09T16:53:56.541Z,93.20
2017-10-09T16:56:24.827Z,93.20
2017-10-09T16:58:54.635Z,93.50
2017-10-09T17:01:23.667Z,93.20
2017-10-09T17:03:52.003Z,93.20
2017-10-09T17:06:20.323Z,93.30
2017-10-09T17:08:48.580Z,93.30
2017-10-09T17:11:17.649Z,93.40
2017-10-09T17:13:45.931Z,93.40
2017-10-09T17:16:14.828Z,93.50
2017-10-09T17:18:43.894Z,93.40
2017-10-09T17:21:12.157Z,93.40
2017-10-09T17:23:42.111Z,93.30
2017-10-09T17:26:10.696Z,93.30
2017-10-09T17:28:38.993Z,93.30
2017-10-09T17:31:08.054Z,93.30
2017-10-09T17:33:37.347Z,93.30
2017-10-09T17:36:05.860Z,93.20
2017-10-09T17:38:34.142Z,93.20
2017-10-09T17:41:03.558Z,93.70
2017-10-09T17:43:32.608Z,93.70
2017-10-09T17:46:00.860Z,93.70
2017-10-09T17:48:29.172Z,93.90
2017-10-09T17:50:57.437Z,94.20
2017-10-09T17:53:25.707Z,94.10
2017-10-09T17:55:54.015Z,93.80
2017-10-09T17:58:22.296Z,93.90
2017-10-09T18:00:50.790Z,94.00
2017-10-09T18:03:19.836Z,94.10
2017-10-09T18:05:48.106Z,94.00
2017-10-09T18:08:16.396Z,93.80
2017-10-09T18:10:44.736Z,93.70
2017-10-09T18:13:14.193Z,94.00
2017-10-09T18:15:42.598Z,94.00
2017-10-09T18:18:10.886Z,94.10
2017-10-09T18:20:39.208Z,94.00
2017-10-09T18:23:07.564Z,93.90
2017-10-09T18:25:35.880Z,93.90
2017-10-09T18:28:04.185Z,93.70
2017-10-09T18:30:34.232Z,93.80
2017-10-09T18:33:02.508Z,93.70
2017-10-09T18:35:30.965Z,93.90
2017-10-09T18:37:59.253Z,94.00
2017-10-09T18:40:28.485Z,93.90
2017-10-09T18:42:57.743Z,94.10
2017-10-09T18:45:26.135Z,93.80
2017-10-09T18:47:55.503Z,94.10
2017-10-09T18:50:23.906Z,94.00
2017-10-09T18:52:52.354Z,94.10
2017-10-09T18:55:20.661Z,94.10
2017-10-09T18:57:50.694Z,94.10
2017-10-09T19:00:19.378Z,94.10
2017-10-09T19:02:48.313Z,94.40
2017-10-09T19:05:18.288Z,94.50
2017-10-09T19:07:47.390Z,94.10
2017-10-09T19:10:16.730Z,94.60
2017-10-09T19:12:45.064Z,94.30
2017-10-09T19:15:14.566Z,94.60
2017-10-09T19:17:42.873Z,94.60
2017-10-09T19:20:11.378Z,94.70
2017-10-09T19:22:42.442Z,94.90
2017-10-09T19:25:10.954Z,94.90
2017-10-09T19:27:40.197Z,94.90
2017-10-09T19:30:09.085Z,94.90
2017-10-09T19:32:39.563Z,94.90
2017-10-09T19:35:08.099Z,94.90
2017-10-09T19:37:37.375Z,95.00
2017-10-09T19:40:07.095Z,94.80
2017-10-09T19:42:36.296Z,94.80
2017-10-09T19:45:05.977Z,94.90
2017-10-09T19:47:35.548Z,94.70
2017-10-09T19:50:04.372Z,94.30
2017-10-09T19:52:36.608Z,94.30
2017-10-09T19:55:05.818Z,94.30
2017-10-09T19:57:35.022Z,94.80
2017-10-09T20:00:03.437Z,94.80
2017-10-09T20:02:33.048Z,94.70
2017-10-09T20:05:02.171Z,94.50
2017-10-09T20:07:31.815Z,94.50
2017-10-09T20:10:00.124Z,94.80
2017-10-09T20:12:28.416Z,95.20
2017-10-09T20:14:57.598Z,95.20
2017-10-09T20:17:26.792Z,95.30
2017-10-09T20:19:55.078Z,95.30
2017-10-09T20:22:23.393Z,95.40
2017-10-09T20:24:51.662Z,95.40
2017-10-09T20:27:20.226Z,95.50
2017-10-09T20:29:49.410Z,95.40
2017-10-09T20:32:18.672Z,95.40
2017-10-09T20:34:47.028Z,95.20
2017-10-09T20:37:16.157Z,95.00
2017-10-09T20:39:44.474Z,94.90
2017-10-09T20:42:13.567Z,94.90
2017-10-09T20:44:41.838Z,94.70
2017-10-09T20:47:10.218Z,95.00
2017-10-09T20:49:38.455Z,95.00
2017-10-09T20:52:06.711Z,94.90
2017-10-09T20:54:34.972Z,94.70
2017-10-09T20:57:04.041Z,94.60
2017-10-09T20:59:33.814Z,94.80
2017-10-09T21:02:02.089Z,94.80
2017-10-09T21:04:30.362Z,94.80
2017-10-09T21:06:58.680Z,95.10
2017-10-09T21:09:26.915Z,95.00
2017-10-09T21:11:55.266Z,95.00
2017-10-09T21:14:24.273Z,95.10
2017-10-09T21:16:53.870Z,95.20
2017-10-09T21:19:22.109Z,95.20
2017-10-09T21:21:50.385Z,95.20
2017-10-09T21:24:18.684Z,94.30
2017-10-09T21:26:46.918Z,94.10
2017-10-09T21:29:15.192Z,94.80
2017-10-09T21:31:43.454Z,94.60
2017-10-09T21:34:11.744Z,94.80
2017-10-09T21:36:40.015Z,95.00
2017-10-09T21:39:08.283Z,95.00
2017-10-09T21:41:38.245Z,94.50
2017-10-09T21:44:06.498Z,94.50
2017-10-09T21:46:34.777Z,94.40
2017-10-09T21:49:03.032Z,94.20
2017-10-09T21:51:31.270Z,94.20
2017-10-09T21:53:59.594Z,94.10
2017-10-09T21:56:27.846Z,94.10
2017-10-09T21:58:56.882Z,94.40
2017-10-09T22:01:25.141Z,94.40
2017-10-09T22:03:54.147Z,94.70
2017-10-09T22:06:22.472Z,94.50
2017-10-09T22:08:50.715Z,94.40
2017-10-09T22:11:18.986Z,94.70
2017-10-09T22:13:47.221Z,94.50
2017-10-09T22:16:16.272Z,94.60
2017-10-09T22:18:44.523Z,94.60
2017-10-09T22:21:12.794Z,94.90
2017-10-09T22:23:41.048Z,94.60
2017-10-09T22:26:10.106Z,94.60
2017-10-09T22:28:38.531Z,94.60
2017-10-09T22:31:06.797Z,94.50
2017-10-09T22:33:35.819Z,94.60
2017-10-09T22:36:04.090Z,94.70
2017-10-09T22:38:32.354Z,94.40
2017-10-09T22:41:00.611Z,94.80
2017-10-09T22:43:29.658Z,94.30
2017-10-09T22:45:57.898Z,94.30
2017-10-09T22:48:26.906Z,94.30
2017-10-09T22:50:56.130Z,94.30
2017-10-09T22:53:24.370Z,94.50
2017-10-09T22:55:53.385Z,94.60
2017-10-09T22:58:21.660Z,94.60
2017-10-09T23:00:50.681Z,94.30
2017-10-09T23:03:18.973Z,94.30
2017-10-09T23:05:47.318Z,94.40
2017-10-09T23:08:16.319Z,94.20
2017-10-09T23:10:44.586Z,94.20
2017-10-09T23:13:12.848Z,94.50
2017-10-09T23:15:41.109Z,94.30
2017-10-09T23:18:10.151Z,94.30
2017-10-09T23:20:38.390Z,94.30
2017-10-09T23:23:07.428Z,94.60
2017-10-09T23:25:35.673Z,94.60
2017-10-09T23:28:03.955Z,94.40
2017-10-09T23:30:32.210Z,94.30
2017-10-09T23:33:00.483Z,94.40
2017-10-09T23:35:28.701Z,94.40
2017-10-09T23:37:56.938Z,94.30
2017-10-09T23:40:25.218Z,94.30
2017-10-09T23:42:54.242Z,94.60
2017-10-09T23:45:22.519Z,94.60
2017-10-09T23:47:50.773Z,94.70
2017-10-09T23:50:20.314Z,94.30
2017-10-09T23:52:48.584Z,94.30
2017-10-09T23:55:16.833Z,94.50
2017-10-09T23:57:45.871Z,94.80
